Terminal Aerodrome Forecast
Issued by NWS

Home | Current Version | Previous Version | Text Only | Print | Product List | Glossary On
Versions: 1 2 3 4 5 6 7 8 9 10 11 12 13 14 15
760
FTUS43 KPAH 212320
TAFCGI
TAF
KCGI 212320Z 2200/2224 02010KT P6SM VCSH SCT050 BKN100
     FM220200 02011KT P6SM BKN100
     FM221400 04012KT P6SM BKN200=

USA.gov is the U.S. government's official web portal to all federal, state and local government web resources and services.